Time;durP1;ratioP1;P1;durP2;ratioP2;P2;SDS_P1;SDS_P2;PMS_P1;PMS_P2;Temp;Humidity;BMP_temperature;BMP_pressure;BME280_temperature;BME280_humidity;BME280_pressure;Samples;Min_cycle;Max_cycle;Signal;HPM_P1;HPM_P2
2022/01/25 00:24:14;;;;;;;;;82.00;66.50;;;;;-3.21;56.22;101356.28;4915996;28;9999;-76
2022/01/25 00:24:46;;;;;;;;;73.50;59.50;;;;;-3.20;56.29;101360.59;4892976;29;9908;-74
2022/01/25 00:27:37;;;;;;;;;92.25;69.50;;;;;-3.22;56.65;101362.13;4895315;29;9742;-74
2022/01/25 00:30:30;;;;;;;;;78.75;64.25;;;;;-3.30;55.74;101357.16;4892691;29;10020;-73
2022/01/25 00:33:03;;;;;;;;;75.50;61.00;;;;;-3.32;56.35;101351.94;4866164;29;9691;-74
2022/01/25 00:35:31;;;;;;;;;75.67;60.33;;;;;-3.32;56.69;101364.69;4927791;29;10482;-73
2022/01/25 00:38:00;;;;;;;;;70.00;57.00;;;;;-3.31;56.42;101366.44;4928530;29;9651;-72
2022/01/25 00:40:28;;;;;;;;;78.25;60.75;;;;;-3.30;55.88;101368.25;4912733;29;9316;-76
2022/01/25 00:42:57;;;;;;;;;75.33;60.00;;;;;-3.28;56.31;101358.19;4911769;29;9514;-77
2022/01/25 00:45:29;;;;;;;;;76.00;61.00;;;;;-3.27;55.73;101365.97;4912262;29;9437;-76
2022/01/25 00:48:02;;;;;;;;;74.75;58.00;;;;;-3.28;55.80;101370.94;4928429;29;9383;-76
2022/01/25 00:50:39;;;;;;;;;80.00;61.00;;;;;-3.28;55.82;101361.63;4962182;28;9601;-77
2022/01/25 00:55:54;;;;;;;;;76.67;61.33;;;;;-3.31;55.76;101363.91;4988342;28;9678;-77
2022/01/25 00:58:23;;;;;;;;;66.33;54.00;;;;;-3.34;56.20;101358.56;5023828;28;9531;-77
2022/01/25 01:00:52;;;;;;;;;72.50;57.00;;;;;-3.32;55.65;101354.47;4991678;28;9357;-74
2022/01/25 01:03:21;;;;;;;;;69.67;57.00;;;;;-3.31;56.27;101363.91;5007939;28;9485;-74
2022/01/25 01:05:51;;;;;;;;;74.67;58.67;;;;;-3.35;56.32;101359.31;5005599;28;9362;-75
2022/01/25 01:08:20;;;;;;;;;78.00;60.33;;;;;-3.31;56.01;101357.91;4968866;28;13224;-76
2022/01/25 01:10:48;;;;;;;;;63.33;53.33;;;;;-3.29;56.08;101351.28;4986941;28;9317;-75
2022/01/25 01:16:29;;;;;;;;;67.00;54.00;;;;;-3.31;55.63;101358.81;4969183;28;9357;-74
2022/01/25 01:30:08;;;;;;;;;63.25;51.00;;;;;-3.35;55.30;101337.25;4985451;28;9462;-78
2022/01/25 01:33:07;;;;;;;;;65.33;54.67;;;;;-3.37;55.45;101333.69;4985399;28;8852;-76
2022/01/25 01:36:15;;;;;;;;;59.33;53.33;;;;;-3.36;56.22;101329.50;4963985;28;9125;-74
2022/01/25 01:39:17;;;;;;;;;63.00;50.00;;;;;-3.33;55.57;101329.72;4969311;28;9271;-73
2022/01/25 01:41:58;;;;;;;;;72.00;56.33;;;;;-3.36;55.75;101325.28;4953293;28;9258;-73
2022/01/25 01:44:38;;;;;;;;;66.67;55.67;;;;;-3.36;56.25;101321.84;4969031;28;9227;-77
2022/01/25 01:47:10;;;;;;;;;64.33;54.00;;;;;-3.36;56.03;101309.97;4985867;28;9281;-73
2022/01/25 01:49:43;;;;;;;;;69.67;55.33;;;;;-3.36;56.04;101315.06;4972906;28;9092;-77
2022/01/25 01:52:13;;;;;;;;;70.33;57.33;;;;;-3.35;56.02;101313.41;4975774;28;9292;-73
2022/01/25 01:54:44;;;;;;;;;73.67;58.67;;;;;-3.35;55.59;101304.09;5031226;28;9559;-76
2022/01/25 01:57:12;;;;;;;;;68.33;51.33;;;;;-3.38;55.72;101305.53;5024579;28;9507;-78
2022/01/25 01:59:41;;;;;;;;;67.00;52.00;;;;;-3.39;55.59;101308.81;5008423;28;9524;-73
2022/01/25 02:02:09;;;;;;;;;77.00;60.33;;;;;-3.39;55.89;101304.59;5006451;28;9579;-77
2022/01/25 02:04:39;;;;;;;;;77.33;57.67;;;;;-3.39;55.64;101303.72;4992041;28;9538;-76
2022/01/25 02:07:07;;;;;;;;;75.00;54.00;;;;;-3.40;56.08;101305.38;5007967;28;9555;-73
2022/01/25 02:09:36;;;;;;;;;69.33;56.33;;;;;-3.40;55.61;101301.94;4960157;28;9522;-77
2022/01/25 02:12:08;;;;;;;;;74.67;61.00;;;;;-3.40;55.86;101297.72;4975756;28;9294;-75
2022/01/25 02:14:40;;;;;;;;;70.67;58.67;;;;;-3.41;56.02;101298.47;4995117;28;9466;-75
2022/01/25 02:17:14;;;;;;;;;73.67;60.67;;;;;-3.41;56.07;101288.28;5008463;28;9364;-76
2022/01/25 02:22:35;;;;;;;;;82.00;63.00;;;;;-3.43;55.37;101283.84;5008036;28;9469;-74
2022/01/25 02:25:04;;;;;;;;;75.00;59.33;;;;;-3.49;55.59;101281.66;4991795;28;10253;-75
2022/01/25 02:27:33;;;;;;;;;69.50;53.50;;;;;-3.55;55.64;101286.25;4963698;28;9583;-76
2022/01/25 02:30:01;;;;;;;;;71.33;58.00;;;;;-3.56;56.00;101290.44;5028747;28;9733;-73
2022/01/25 02:32:30;;;;;;;;;50.33;39.67;;;;;-3.56;56.11;101285.34;5028868;28;9517;-74
2022/01/25 02:35:02;;;;;;;;;72.67;56.00;;;;;-3.57;56.56;101283.56;4979088;28;9434;-72
2022/01/25 02:37:31;;;;;;;;;77.50;63.00;;;;;-3.58;56.25;101274.13;5010952;28;9207;-74
2022/01/25 02:40:00;;;;;;;;;78.00;61.25;;;;;-3.58;56.15;101271.56;5028290;28;10235;-75
2022/01/25 02:42:29;;;;;;;;;69.75;59.50;;;;;-3.57;56.70;101267.38;5011527;28;9516;-74
2022/01/25 02:44:57;;;;;;;;;75.50;57.00;;;;;-3.57;56.42;101272.50;5028750;28;9582;-72
2022/01/25 02:50:13;;;;;;;;;70.00;57.33;;;;;-3.61;56.87;101275.53;5012129;28;9515;-72
2022/01/25 02:52:42;;;;;;;;;69.67;55.33;;;;;-3.61;57.05;101279.00;5028326;28;9273;-74
2022/01/25 02:55:11;;;;;;;;;64.00;51.67;;;;;-3.59;56.99;101271.44;5030077;28;10183;-77
2022/01/25 02:57:40;;;;;;;;;72.00;59.25;;;;;-3.59;56.96;101266.34;5044601;28;9692;-75
2022/01/25 03:00:09;;;;;;;;;56.67;49.00;;;;;-3.58;56.63;101271.56;5028714;28;9609;-75
2022/01/25 03:02:38;;;;;;;;;74.33;60.00;;;;;-3.58;56.78;101269.03;5012186;28;9446;-75
2022/01/25 03:05:08;;;;;;;;;70.00;57.33;;;;;-3.60;56.64;101273.09;5045306;28;9427;-72
2022/01/25 03:07:40;;;;;;;;;74.33;54.67;;;;;-3.60;56.63;101273.09;5029702;28;9093;-76
2022/01/25 03:10:35;;;;;;;;;82.00;61.67;;;;;-3.62;56.35;101261.88;5028499;28;9290;-75
2022/01/25 03:13:06;;;;;;;;;80.00;60.33;;;;;-3.64;57.27;101268.53;4994935;28;9485;-74
2022/01/25 03:15:54;;;;;;;;;72.67;59.33;;;;;-3.63;56.96;101267.78;5029849;28;9439;-76
2022/01/25 03:18:43;;;;;;;;;70.00;54.33;;;;;-3.70;56.60;101265.47;5027417;28;9557;-73
2022/01/25 03:21:20;;;;;;;;;69.67;57.67;;;;;-3.69;56.99;101262.13;5028236;28;9387;-77
2022/01/25 03:23:52;;;;;;;;;67.67;57.67;;;;;-3.70;56.91;101265.47;5024635;28;9509;-73
2022/01/25 03:26:22;;;;;;;;;79.00;62.33;;;;;-3.68;56.88;101263.06;5014920;28;9574;-74
2022/01/25 03:28:51;;;;;;;;;75.33;60.00;;;;;-3.69;57.11;101259.59;4995430;28;10261;-77
2022/01/25 03:31:20;;;;;;;;;70.67;56.33;;;;;-3.72;56.74;101261.91;5024338;28;9398;-75
2022/01/25 03:33:49;;;;;;;;;72.33;56.33;;;;;-3.71;56.85;101258.56;4983558;28;9227;-75
2022/01/25 03:36:18;;;;;;;;;82.33;61.67;;;;;-3.73;57.08;101255.00;5043115;28;9342;-78
2022/01/25 03:38:47;;;;;;;;;76.67;58.67;;;;;-3.81;57.13;101256.03;5011803;28;9439;-74
2022/01/25 03:41:18;;;;;;;;;67.67;50.67;;;;;-3.81;57.04;101248.38;5027277;28;9387;-74
2022/01/25 03:43:53;;;;;;;;;75.33;60.00;;;;;-3.78;56.78;101254.63;5027032;28;9202;-74
2022/01/25 03:46:31;;;;;;;;;72.33;57.67;;;;;-3.85;57.12;101243.78;5027092;28;9196;-73
2022/01/25 03:51:46;;;;;;;;;70.67;58.67;;;;;-3.88;56.74;101238.41;5027231;28;9359;-74
2022/01/25 03:54:15;;;;;;;;;73.67;57.33;;;;;-3.86;57.02;101236.91;5027474;28;9961;-75
2022/01/25 03:56:46;;;;;;;;;60.00;48.00;;;;;-3.85;56.98;101233.59;5027163;28;9564;-74
2022/01/25 03:59:14;;;;;;;;;82.67;63.00;;;;;-3.84;57.50;101233.69;4993771;28;9198;-77
2022/01/25 04:01:43;;;;;;;;;69.33;55.67;;;;;-3.85;57.35;101226.84;5010728;28;9349;-79
2022/01/25 04:04:15;;;;;;;;;77.25;61.75;;;;;-3.83;57.43;101226.97;5027206;28;9443;-74
2022/01/25 04:06:48;;;;;;;;;66.67;51.67;;;;;-3.86;56.68;101217.38;4989314;28;9766;-74
2022/01/25 04:09:17;;;;;;;;;71.67;57.33;;;;;-3.83;56.92;101222.75;5005489;28;9460;-74
2022/01/25 04:11:47;;;;;;;;;79.00;62.33;;;;;-3.83;57.39;101225.31;5005761;28;9342;-80
2022/01/25 04:14:16;;;;;;;;;73.75;60.00;;;;;-3.84;57.33;101222.63;5006050;28;9512;-77
2022/01/25 04:16:52;;;;;;;;;84.50;64.50;;;;;-3.84;57.52;101208.22;5005592;28;9916;-77
2022/01/25 04:19:30;;;;;;;;;76.67;60.67;;;;;-3.81;57.59;101218.69;5005743;28;9787;-73
2022/01/25 04:27:31;;;;;;;;;61.00;49.67;;;;;-3.84;57.14;101218.41;4987192;28;9836;-76
2022/01/25 04:30:01;;;;;;;;;75.00;60.33;;;;;-3.83;57.00;101219.31;5006072;28;9350;-72
2022/01/25 04:32:40;;;;;;;;;69.75;55.50;;;;;-3.84;56.84;101217.53;4989171;28;9519;-74
2022/01/25 04:35:24;;;;;;;;;70.00;55.00;;;;;-3.84;57.53;101217.53;4989125;28;10943;-76
2022/01/25 04:49:09;;;;;;;;;70.00;57.33;;;;;-4.01;57.48;101217.00;5025558;28;9584;-76
2022/01/25 04:51:48;;;;;;;;;70.67;60.00;;;;;-4.01;56.81;101213.56;5010211;28;9282;-75
2022/01/25 04:54:28;;;;;;;;;71.67;55.67;;;;;-3.99;56.83;101205.31;4992486;28;9223;-76
2022/01/25 04:57:08;;;;;;;;;60.00;46.00;;;;;-3.97;57.03;101208.88;5025389;28;9506;-75
2022/01/25 04:59:43;;;;;;;;;64.67;50.67;;;;;-3.95;56.61;101204.78;5009205;28;9338;-76
2022/01/25 05:02:17;;;;;;;;;75.67;60.33;;;;;-3.94;57.36;101206.56;5025178;28;9126;-74
2022/01/25 05:04:51;;;;;;;;;89.25;69.50;;;;;-3.99;56.80;101209.47;4978486;28;9366;-77
2022/01/25 05:07:31;;;;;;;;;76.25;63.00;;;;;-4.01;56.45;101216.09;5008643;28;9919;-74
2022/01/25 05:10:02;;;;;;;;;79.00;60.00;;;;;-4.01;56.52;101211.88;5013080;28;9780;-77
2022/01/25 05:12:41;;;;;;;;;72.00;56.00;;;;;-3.99;56.56;101212.03;5008324;28;9361;-73
2022/01/25 05:16:00;;;;;;;;;55.67;48.00;;;;;-4.05;56.40;101216.63;5024195;28;9859;-75
2022/01/25 05:18:40;;;;;;;;;75.33;56.33;;;;;-4.03;57.12;101213.41;5028130;28;9243;-75
2022/01/25 05:23:51;;;;;;;;;76.75;61.25;;;;;-4.02;57.29;101207.56;4956929;28;9612;-75
2022/01/25 05:26:20;;;;;;;;;70.33;57.33;;;;;-4.01;57.29;101201.69;4956742;28;9656;-73
2022/01/25 05:28:48;;;;;;;;;66.00;51.33;;;;;-4.00;56.98;101202.63;4973109;28;9611;-76
2022/01/25 05:31:19;;;;;;;;;67.33;55.67;;;;;-4.03;56.23;101199.81;4972981;28;9280;-78
2022/01/25 05:33:48;;;;;;;;;30.00;16.67;;;;;-4.04;56.10;101206.56;4973270;28;9451;-77
2022/01/25 05:36:18;;;;;;;;;65.00;51.00;;;;;-4.03;56.71;101202.34;4972712;28;9192;-76
2022/01/25 05:38:47;;;;;;;;;65.33;54.00;;;;;-4.02;56.84;101199.06;4989079;28;9317;-77
2022/01/25 05:41:16;;;;;;;;;82.00;65.75;;;;;-4.01;57.37;101201.69;4972561;28;9183;-75
2022/01/25 05:44:13;;;;;;;;;79.25;63.00;;;;;-4.02;57.15;101201.59;4956194;28;9928;-77
2022/01/25 05:46:47;;;;;;;;;70.25;57.75;;;;;-4.04;56.27;101201.47;4968476;28;9643;-75
2022/01/25 05:49:17;;;;;;;;;71.00;56.67;;;;;-4.05;57.50;101204.75;4951457;28;9448;-79
2022/01/25 05:51:45;;;;;;;;;71.75;61.25;;;;;-4.02;56.69;101206.69;4967955;28;9646;-77
2022/01/25 05:54:15;;;;;;;;;79.00;62.50;;;;;-4.00;57.14;101205.16;4951655;28;10355;-75
2022/01/25 05:56:49;;;;;;;;;71.00;59.33;;;;;-4.00;57.25;101205.16;4967201;28;10448;-73
2022/01/25 05:59:18;;;;;;;;;78.00;60.00;;;;;-3.99;56.70;101204.38;4950934;28;9464;-74
2022/01/25 06:01:48;;;;;;;;;72.33;57.67;;;;;-3.95;56.20;101206.41;4875677;28;13317;-74
2022/01/25 06:04:21;;;;;;;;;73.00;60.25;;;;;-3.93;56.86;101210.03;4967408;28;9407;-74
2022/01/25 06:06:51;;;;;;;;;69.00;57.25;;;;;-3.94;57.05;101206.56;4953518;28;9577;-75
2022/01/25 06:09:19;;;;;;;;;69.33;57.33;;;;;-3.92;56.54;101205.03;4984174;28;9537;-74
2022/01/25 06:11:48;;;;;;;;;71.25;56.00;;;;;-3.89;56.57;101195.84;4986350;28;9288;-75
2022/01/25 06:14:17;;;;;;;;;74.50;57.75;;;;;-3.89;56.06;101199.31;4970238;28;9479;-74
2022/01/25 06:16:45;;;;;;;;;53.00;45.00;;;;;-3.87;56.15;101194.34;4970569;28;10281;-74
2022/01/25 06:19:15;;;;;;;;;68.33;54.67;;;;;-3.84;56.20;101197.13;4986664;28;9349;-75
2022/01/25 06:21:44;;;;;;;;;73.25;58.50;;;;;-3.85;56.93;101198.81;4970284;28;9552;-75
2022/01/25 06:24:13;;;;;;;;;53.50;45.50;;;;;-3.82;56.38;101193.06;4986481;28;9488;-76
2022/01/25 06:26:41;;;;;;;;;80.50;63.50;;;;;-3.79;56.36;101193.31;4970285;28;9556;-74
2022/01/25 06:29:11;;;;;;;;;84.50;66.00;;;;;-3.81;56.69;101185.53;4953817;28;9879;-74
2022/01/25 06:31:39;;;;;;;;;80.75;62.50;;;;;-3.78;56.28;101185.81;4967519;28;9823;-74
2022/01/25 06:34:08;;;;;;;;;76.25;61.25;;;;;-3.75;55.71;101191.16;4985915;28;9666;-73
2022/01/25 06:36:38;;;;;;;;;74.00;60.75;;;;;-3.70;55.71;101183.91;4953420;28;9937;-73
2022/01/25 06:39:07;;;;;;;;;76.50;63.25;;;;;-3.73;56.33;101173.44;4966411;28;10023;-74
2022/01/25 06:41:37;;;;;;;;;82.00;62.00;;;;;-3.67;55.93;101173.06;4984942;28;9657;-74
2022/01/25 06:44:07;;;;;;;;;77.00;60.00;;;;;-3.59;56.06;101170.38;4954014;28;10328;-75
2022/01/25 06:46:36;;;;;;;;;79.25;64.75;;;;;-3.53;56.25;101168.31;4995406;28;9829;-75
2022/01/25 06:49:05;;;;;;;;;83.25;67.00;;;;;-3.48;56.27;101167.81;4992720;28;10594;-75
2022/01/25 06:51:34;;;;;;;;;78.00;62.50;;;;;-3.43;55.19;101166.53;5025191;28;10070;-74
2022/01/25 06:54:04;;;;;;;;;79.25;64.75;;;;;-3.42;54.74;101166.66;5003264;28;9685;-78
2022/01/25 06:56:33;;;;;;;;;70.33;53.33;;;;;-3.41;55.56;101162.44;4969423;28;9813;-80
2022/01/25 06:59:02;;;;;;;;;78.75;63.00;;;;;-3.35;55.06;101157.81;5004516;28;9301;-79
2022/01/25 07:01:31;;;;;;;;;84.50;66.00;;;;;-3.26;55.07;101158.56;4986613;28;9625;-78
2022/01/25 07:04:00;;;;;;;;;77.50;63.50;;;;;-3.18;55.42;101164.28;4946997;28;9738;-74
2022/01/25 07:06:29;;;;;;;;;92.00;69.00;;;;;-3.08;55.23;101164.28;4946072;28;9671;-74
2022/01/25 07:08:58;;;;;;;;;79.50;64.00;;;;;-3.00;55.08;101162.34;4946474;28;9805;-74
2022/01/25 07:11:29;;;;;;;;;81.33;61.67;;;;;-2.93;54.81;101159.47;4933765;28;9663;-74
2022/01/25 07:13:58;;;;;;;;;70.67;54.67;;;;;-2.87;54.47;101157.44;4930727;28;9441;-74
2022/01/25 07:16:26;;;;;;;;;87.25;67.25;;;;;-2.86;54.48;101165.97;4930220;28;9385;-75
2022/01/25 07:18:55;;;;;;;;;74.67;60.33;;;;;-2.79;54.29;101158.91;4930937;28;9777;-73
2022/01/25 07:21:24;;;;;;;;;77.50;59.50;;;;;-2.82;54.68;101161.22;4925224;28;9369;-76
2022/01/25 07:23:53;;;;;;;;;65.33;49.00;;;;;-2.71;54.52;101167.19;4937784;28;9818;-75
2022/01/25 07:26:22;;;;;;;;;70.67;50.67;;;;;-2.64;54.06;101166.91;4931785;28;9309;-74
2022/01/25 07:28:52;;;;;;;;;75.33;60.00;;;;;-2.62;53.56;101160.25;4948307;28;9426;-75
2022/01/25 07:31:21;;;;;;;;;84.75;66.00;;;;;-2.61;53.69;101153.47;4933476;28;9407;-73
2022/01/25 07:33:52;;;;;;;;;78.00;63.00;;;;;-2.49;54.07;101151.00;4951627;28;9512;-74
2022/01/25 07:36:23;;;;;;;;;75.67;59.67;;;;;-2.38;53.47;101147.63;5022768;28;9426;-73
2022/01/25 07:38:53;;;;;;;;;70.67;57.00;;;;;-2.25;53.61;101152.88;4974286;28;12973;-76
2022/01/25 07:41:34;;;;;;;;;67.67;56.33;;;;;-2.13;53.13;101154.59;5000088;28;9365;-74
2022/01/25 07:44:11;;;;;;;;;75.00;59.33;;;;;-2.04;53.02;101145.97;5024937;28;9586;-72
2022/01/25 07:46:40;;;;;;;;;75.00;61.00;;;;;-1.92;52.51;101151.09;5025916;28;9372;-74
2022/01/25 07:49:11;;;;;;;;;77.33;57.67;;;;;-1.92;52.07;101157.88;4976730;28;9198;-72
2022/01/25 07:51:42;;;;;;;;;76.33;61.00;;;;;-1.78;52.19;101154.69;5025135;28;9376;-72
2022/01/25 07:54:10;;;;;;;;;77.67;60.67;;;;;-1.84;51.30;101155.09;5007959;28;9059;-72
2022/01/25 07:56:39;;;;;;;;;77.67;59.33;;;;;-1.73;52.05;101153.38;5008724;28;9348;-75
2022/01/25 07:59:07;;;;;;;;;71.67;57.67;;;;;-1.59;52.44;101151.81;4989386;28;9578;-75
2022/01/25 08:01:37;;;;;;;;;73.33;57.33;;;;;-1.57;51.23;101155.38;4975754;28;9460;-74
2022/01/25 08:04:09;;;;;;;;;72.67;60.00;;;;;-1.44;51.98;101149.50;5000006;28;9320;-72
2022/01/25 08:06:51;;;;;;;;;70.67;57.67;;;;;-1.29;51.46;101147.19;5007328;28;9277;-73
2022/01/25 08:09:21;;;;;;;;;69.67;57.00;;;;;-1.23;50.75;101142.50;4968614;28;9786;-75
2022/01/25 08:11:57;;;;;;;;;67.33;53.67;;;;;-1.07;50.59;101142.84;5008178;28;9176;-72
2022/01/25 08:14:32;;;;;;;;;73.33;58.33;;;;;-1.00;50.74;101145.06;5008311;28;8949;-72
2022/01/25 08:17:07;;;;;;;;;62.00;52.50;;;;;-0.86;50.78;101146.03;4962025;28;8998;-74
2022/01/25 08:19:46;;;;;;;;;64.50;53.50;;;;;-0.75;50.51;101139.13;5025260;28;8848;-73
2022/01/25 08:22:21;;;;;;;;;67.50;53.50;;;;;-0.66;49.66;101144.88;4976062;28;9008;-73
2022/01/25 08:24:50;;;;;;;;;70.75;52.50;;;;;-0.63;49.26;101144.19;4992989;28;8844;-72
2022/01/25 08:27:22;;;;;;;;;66.33;51.67;;;;;-0.62;49.29;101141.75;5028440;28;8880;-73
2022/01/25 08:29:52;;;;;;;;;72.00;57.25;;;;;-0.56;49.06;101137.84;5042147;28;9024;-73
2022/01/25 08:32:26;;;;;;;;;60.50;48.75;;;;;-0.49;48.56;101143.50;5039738;28;9530;-72
2022/01/25 08:34:59;;;;;;;;;66.25;54.25;;;;;-0.35;49.38;101143.56;5003293;28;8853;-76
2022/01/25 08:37:27;;;;;;;;;71.75;58.50;;;;;-0.25;48.86;101141.72;5004943;28;8963;-74
2022/01/25 08:40:03;;;;;;;;;70.00;54.33;;;;;-0.23;48.46;101144.41;4965782;28;8907;-71
2022/01/25 08:42:36;;;;;;;;;71.67;58.00;;;;;-0.11;48.98;101147.81;5022911;28;9108;-77
2022/01/25 08:45:08;;;;;;;;;79.67;64.67;;;;;-0.09;47.95;101138.56;5018507;28;9077;-71
2022/01/25 08:47:40;;;;;;;;;83.33;64.33;;;;;-0.03;48.07;101140.63;4976510;28;9413;-73
2022/01/25 08:50:13;;;;;;;;;78.00;60.00;;;;;0.06;47.79;101141.25;4992659;28;9114;-75
2022/01/25 08:52:44;;;;;;;;;82.67;64.67;;;;;-0.57;47.40;101146.31;5043402;28;9264;-79
2022/01/25 08:55:31;;;;;;;;;77.33;62.33;;;;;-0.36;48.83;101144.34;5026512;28;9256;-74
2022/01/25 08:58:02;;;;;;;;;81.67;65.33;;;;;-0.22;49.26;101146.19;5043900;28;9463;-74
2022/01/25 09:00:30;;;;;;;;;78.00;63.67;;;;;-0.17;48.64;101149.97;5044250;28;9268;-73
2022/01/25 09:03:01;;;;;;;;;75.33;60.67;;;;;-0.07;48.06;101147.22;5043682;28;9060;-72
2022/01/25 09:05:30;;;;;;;;;76.00;61.33;;;;;0.04;48.62;101136.78;5044151;28;9339;-73
2022/01/25 09:08:01;;;;;;;;;84.00;66.00;;;;;0.17;48.56;101136.84;5044049;28;9445;-72
2022/01/25 09:10:30;;;;;;;;;30.00;17.67;;;;;0.24;48.07;101138.16;5027318;28;9247;-72
2022/01/25 09:12:58;;;;;;;;;83.00;64.33;;;;;0.36;48.18;101131.28;5043331;28;9114;-73
2022/01/25 09:15:27;;;;;;;;;86.00;67.33;;;;;0.11;46.85;101131.31;5043232;28;9240;-72
2022/01/25 09:17:56;;;;;;;;;85.33;66.33;;;;;0.23;48.26;101128.66;5027051;28;10057;-73
2022/01/25 09:20:26;;;;;;;;;78.67;63.67;;;;;-0.15;46.71;101127.88;5027152;28;9335;-72
2022/01/25 09:22:55;;;;;;;;;75.67;63.67;;;;;-0.26;46.96;101139.09;4990386;28;9179;-72
2022/01/25 09:25:31;;;;;;;;;60.50;49.25;;;;;-0.47;47.86;101131.69;5026312;28;9601;-72
2022/01/25 09:28:01;;;;;;;;;69.50;56.75;;;;;-0.21;49.22;101127.44;4997109;28;8854;-72
2022/01/25 09:30:30;;;;;;;;;76.67;63.00;;;;;-0.01;48.53;101128.81;5008666;28;8914;-74
2022/01/25 09:32:59;;;;;;;;;66.50;54.25;;;;;0.12;48.04;101121.16;5025328;28;9268;-72
2022/01/25 09:35:29;;;;;;;;;76.00;60.75;;;;;-0.02;48.25;101116.75;5004035;28;8851;-73
2022/01/25 09:37:58;;;;;;;;;83.33;63.33;;;;;-0.22;48.02;101120.56;4984597;28;8960;-73
2022/01/25 09:40:28;;;;;;;;;75.00;61.00;;;;;0.07;48.68;101114.81;4968298;28;9289;-74
2022/01/25 09:42:58;;;;;;;;;54.25;47.50;;;;;0.26;47.43;101110.91;4952193;28;9024;-73
2022/01/25 09:45:27;;;;;;;;;70.00;54.00;;;;;-0.67;47.39;101114.03;4984533;28;8841;-78
2022/01/25 09:47:56;;;;;;;;;59.25;52.50;;;;;-1.03;47.91;101120.91;4936155;28;9187;-72
2022/01/25 09:50:26;;;;;;;;;73.00;59.00;;;;;-1.81;50.52;101118.69;4984614;28;8887;-74
2022/01/25 09:52:59;;;;;;;;;61.00;52.25;;;;;-1.33;51.19;101104.25;4937269;28;9035;-73
2022/01/25 09:55:32;;;;;;;;;60.75;50.25;;;;;-1.12;49.78;101103.22;4968046;28;8899;-72
2022/01/25 09:58:02;;;;;;;;;46.75;43.50;;;;;-0.93;50.31;101102.84;4985083;28;8900;-74
2022/01/25 10:00:34;;;;;;;;;48.75;43.75;;;;;-0.73;49.72;101104.25;4984692;28;8986;-72
2022/01/25 10:03:10;;;;;;;;;59.50;47.25;;;;;-0.94;48.81;101103.63;4931564;28;9901;-72
2022/01/25 10:05:43;;;;;;;;;54.75;46.75;;;;;-1.53;50.44;101101.13;4965091;28;8855;-72
2022/01/25 10:08:15;;;;;;;;;54.50;48.00;;;;;-2.07;51.51;101109.06;4970682;28;9639;-73
2022/01/25 10:10:46;;;;;;;;;60.50;51.75;;;;;-1.89;51.80;101105.31;5004757;28;8973;-72
2022/01/25 10:13:21;;;;;;;;;57.50;46.25;;;;;-1.62;52.22;101103.91;5007270;28;8869;-73
2022/01/25 10:15:52;;;;;;;;;59.00;46.75;;;;;-1.23;51.56;101092.22;4973859;28;8982;-73
2022/01/25 10:18:22;;;;;;;;;47.00;45.00;;;;;-1.65;50.54;101090.88;4990403;28;9024;-72
2022/01/25 10:20:52;;;;;;;;;48.25;44.50;;;;;-2.61;52.18;101089.63;4990715;28;8955;-77
2022/01/25 10:23:30;;;;;;;;;41.00;40.00;;;;;-2.26;53.30;101092.31;4981865;28;8866;-78
2022/01/25 10:26:18;;;;;;;;;49.50;43.75;;;;;-1.87;52.71;101070.53;5007468;28;8939;-73
2022/01/25 10:29:08;;;;;;;;;43.00;37.00;;;;;-1.51;53.77;101058.66;4974209;28;8971;-74
2022/01/25 10:31:39;;;;;;;;;39.25;39.25;;;;;-1.10;51.86;101062.38;4997650;28;9573;-77
2022/01/25 10:34:10;;;;;;;;;60.00;48.75;;;;;-1.18;50.52;101060.16;5007500;28;8873;-74
2022/01/25 10:37:00;;;;;;;;;50.25;42.00;;;;;-0.89;49.81;101052.75;4969497;28;8864;-75
2022/01/25 10:39:32;;;;;;;;;60.25;48.75;;;;;-0.70;50.50;101050.69;4999029;28;8995;-73
2022/01/25 10:42:06;;;;;;;;;49.75;45.50;;;;;-0.24;49.30;101052.91;5014450;28;8937;-74
2022/01/25 10:44:47;;;;;;;;;49.00;43.75;;;;;-0.01;48.64;101044.19;4993046;28;8884;-74
2022/01/25 10:47:16;;;;;;;;;45.75;43.50;;;;;-0.47;49.42;101036.88;5042803;28;9020;-74
2022/01/25 10:49:46;;;;;;;;;37.00;35.75;;;;;-0.15;49.74;101037.25;5043606;28;9656;-72
2022/01/25 10:52:14;;;;;;;;;48.25;40.25;;;;;-0.29;47.34;101038.91;5009556;28;8851;-73
2022/01/25 10:54:44;;;;;;;;;47.50;42.00;;;;;-0.50;48.13;101034.09;5028585;28;8855;-71
2022/01/25 10:57:24;;;;;;;;;44.25;37.75;;;;;-1.28;48.57;101037.25;5028890;28;8877;-75
2022/01/25 11:00:14;;;;;;;;;39.50;36.25;;;;;-1.72;50.32;101044.28;5043693;28;9672;-77
2022/01/25 11:02:50;;;;;;;;;46.25;42.00;;;;;-1.57;51.17;101025.84;5043278;28;8868;-73
2022/01/25 11:05:19;;;;;;;;;46.25;39.75;;;;;-1.30;50.76;101017.47;5042653;28;8871;-73
2022/01/25 11:07:48;;;;;;;;;44.00;37.00;;;;;-0.76;49.77;101003.25;4986429;28;8884;-73
2022/01/25 11:10:21;;;;;;;;;27.25;25.50;;;;;-0.43;48.86;101002.97;4964871;28;8902;-74
2022/01/25 11:13:03;;;;;;;;;44.25;41.00;;;;;-0.41;46.20;101000.53;4965196;28;9017;-74
2022/01/25 11:15:35;;;;;;;;;39.25;37.00;;;;;-0.72;47.90;100995.00;4970493;28;8885;-72
2022/01/25 11:18:05;;;;;;;;;35.00;34.50;;;;;-1.03;47.80;101001.47;4986458;28;8903;-77
2022/01/25 11:20:35;;;;;;;;;33.75;30.75;;;;;-0.84;49.43;100984.81;4985877;28;8877;-73
2022/01/25 11:23:04;;;;;;;;;37.75;33.00;;;;;-0.25;48.42;100997.31;4954582;28;8915;-74
2022/01/25 11:25:38;;;;;;;;;41.75;38.25;;;;;-0.02;46.95;100992.03;4985946;28;8881;-75
2022/01/25 11:28:08;;;;;;;;;41.50;34.00;;;;;0.43;47.15;100981.16;4967337;28;8863;-70
2022/01/25 11:30:38;;;;;;;;;44.50;39.50;;;;;0.41;45.91;100982.75;4977094;28;8978;-76
2022/01/25 11:33:09;;;;;;;;;42.00;38.25;;;;;0.72;46.56;100968.47;4933990;28;8997;-76
2022/01/25 11:35:40;;;;;;;;;45.50;39.50;;;;;1.04;45.41;100967.00;4983501;28;8874;-74
2022/01/25 11:38:09;;;;;;;;;42.50;37.00;;;;;0.39;44.86;100957.84;4979221;28;8862;-73
2022/01/25 11:40:41;;;;;;;;;52.50;42.75;;;;;0.42;45.15;100959.75;5003479;28;8879;-73
2022/01/25 11:43:12;;;;;;;;;44.50;40.75;;;;;0.44;45.15;100949.59;5032051;28;8965;-72
2022/01/25 11:45:43;;;;;;;;;50.50;41.50;;;;;0.07;45.99;100953.25;5048292;28;8978;-72
2022/01/25 11:48:13;;;;;;;;;55.00;48.00;;;;;0.07;45.68;100958.38;5032250;28;8879;-73
2022/01/25 11:50:43;;;;;;;;;36.50;34.25;;;;;-0.34;46.51;100951.47;5026974;28;8848;-73
2022/01/25 11:53:15;;;;;;;;;47.00;44.50;;;;;0.02;47.27;100949.53;5030090;28;8859;-73
2022/01/25 11:55:48;;;;;;;;;52.75;45.50;;;;;0.12;45.94;100948.44;5031807;28;9110;-71
2022/01/25 11:58:28;;;;;;;;;51.50;44.25;;;;;0.51;46.58;100934.66;5030656;28;8929;-71
2022/01/25 12:00:59;;;;;;;;;46.25;44.00;;;;;0.06;45.15;100933.53;5029884;28;8868;-73
2022/01/25 12:03:31;;;;;;;;;45.75;43.25;;;;;-0.52;46.31;100933.19;5029307;28;8870;-74
2022/01/25 12:06:06;;;;;;;;;41.25;37.25;;;;;-0.90;47.43;100934.06;5032600;28;8938;-72
2022/01/25 12:08:49;;;;;;;;;48.00;45.25;;;;;-0.87;49.19;100924.06;5031951;28;8894;-72
2022/01/25 12:11:34;;;;;;;;;52.50;43.00;;;;;-0.32;49.11;100931.94;5017855;28;8894;-72
2022/01/25 12:14:28;;;;;;;;;56.50;45.50;;;;;0.08;46.38;100928.50;5032255;28;8899;-74
2022/01/25 12:17:10;;;;;;;;;43.25;41.75;;;;;0.05;45.09;100924.06;4980954;28;8887;-72
2022/01/25 12:19:44;;;;;;;;;37.00;34.00;;;;;-0.12;45.06;100914.41;4953984;28;8902;-78
2022/01/25 12:22:16;;;;;;;;;43.50;41.75;;;;;-0.05;44.95;100914.00;4953345;28;8997;-71
2022/01/25 12:24:58;;;;;;;;;42.50;39.00;;;;;-0.60;45.41;100911.31;4968627;28;8876;-74
2022/01/25 12:27:51;;;;;;;;;45.75;36.00;;;;;-0.07;46.94;100901.09;4905459;28;8876;-73
2022/01/25 12:30:35;;;;;;;;;47.00;43.00;;;;;0.25;45.27;100896.22;4952555;28;8869;-72
2022/01/25 12:33:07;;;;;;;;;37.00;31.00;;;;;0.10;43.67;100891.91;4949089;28;8857;-73
2022/01/25 12:35:42;;;;;;;;;33.50;24.75;;;;;0.14;45.12;100883.59;4951299;28;9607;-74
2022/01/25 12:38:17;;;;;;;;;32.75;28.75;;;;;0.54;44.30;100882.63;4950721;28;8873;-74
2022/01/25 12:41:00;;;;;;;;;47.25;41.50;;;;;0.31;43.24;100887.22;4955093;28;8881;-73
2022/01/25 12:43:38;;;;;;;;;37.00;33.75;;;;;0.70;44.58;100893.03;4888933;29;8901;-74
2022/01/25 12:46:10;;;;;;;;;32.75;25.50;;;;;0.33;42.42;100895.91;4888884;29;8882;-73
2022/01/25 12:48:46;;;;;;;;;38.50;34.25;;;;;0.49;43.59;100884.94;4903176;29;8865;-72